Terminal Aerodrome Forecast
Issued by NWS

Home | Current Version | Previous Version | Text Only | Print | Product List | Glossary On
Versions: 1 2 3 4 5 6 7 8 9 10 11 12 13 14 15 16 17 18 19 20 21 22 23 24 25 26 27 28 29
000
FTUS44 KHGX 300520
TAFLBX
TAF
KLBX 300520Z 3006/0106 18015KT P6SM OVC013
     FM300700 17014G22KT 5SM BR VCSH BKN015
      TEMPO 3010/3014 -TSRA BKN012CB
     FM301400 16008KT P6SM VCTS BKN015CB
     FM301800 18009KT P6SM BKN030
     FM010300 16005KT 6SM BR SCT007 BKN025=

USA.gov is the U.S. government's official web portal to all federal, state and local government web resources and services.